createdAt,value
2018-08-07T00:00:23.107Z,1.00
2018-08-07T00:02:52.640Z,0.90
2018-08-07T00:05:21.609Z,1.00
2018-08-07T00:08:06.713Z,1.00
2018-08-07T00:13:55.790Z,1.00
2018-08-07T00:16:25.912Z,0.90
2018-08-07T00:18:55.079Z,0.95
2018-08-07T00:21:24.293Z,0.93
2018-08-07T00:23:53.320Z,1.00
2018-08-07T00:26:22.452Z,1.10
2018-08-07T00:28:51.481Z,0.88
2018-08-07T00:31:20.364Z,1.00
2018-08-07T00:33:49.459Z,0.72
2018-08-07T00:36:18.365Z,0.80
2018-08-07T00:38:47.517Z,1.07
2018-08-07T00:41:16.752Z,2.33
2018-08-07T00:43:45.829Z,1.12
2018-08-07T00:46:15.855Z,0.93
2018-08-07T00:48:44.837Z,0.80
2018-08-07T00:51:13.903Z,1.07
2018-08-07T00:53:42.986Z,0.98
2018-08-07T00:56:12.079Z,1.10
2018-08-07T00:58:40.997Z,0.80
2018-08-07T01:01:10.093Z,0.85
2018-08-07T01:03:38.897Z,1.00
2018-08-07T01:06:07.879Z,0.70
2018-08-07T01:08:37.681Z,1.20
2018-08-07T01:11:06.929Z,1.10
2018-08-07T01:13:35.831Z,1.10
2018-08-07T01:16:04.781Z,1.15
2018-08-07T01:18:33.685Z,0.85
2018-08-07T01:21:03.420Z,1.02
2018-08-07T01:23:32.550Z,1.05
2018-08-07T01:26:01.486Z,0.90
2018-08-07T01:28:30.459Z,0.88
2018-08-07T01:30:59.438Z,1.10
2018-08-07T01:33:29.640Z,1.45
2018-08-07T01:35:58.620Z,1.00
2018-08-07T01:38:27.731Z,0.80
2018-08-07T01:40:56.705Z,1.00
2018-08-07T01:43:25.724Z,0.98
2018-08-07T01:45:54.920Z,0.85
2018-08-07T01:48:40.355Z,1.10
2018-08-07T01:58:03.399Z,0.78
2018-08-07T02:00:32.480Z,1.17
2018-08-07T02:03:01.595Z,1.80
2018-08-07T02:05:30.496Z,0.78
2018-08-07T02:07:59.473Z,0.90
2018-08-07T02:10:28.395Z,0.93
2018-08-07T02:12:57.524Z,0.98
2018-08-07T02:15:26.822Z,1.00
2018-08-07T02:17:55.839Z,0.80
2018-08-07T02:20:24.822Z,0.98
2018-08-07T02:22:53.811Z,0.88
2018-08-07T02:25:22.707Z,1.32
2018-08-07T02:27:51.838Z,1.00
2018-08-07T02:30:20.860Z,0.90
2018-08-07T02:32:49.918Z,0.95
2018-08-07T02:35:19.096Z,0.90
2018-08-07T02:37:48.383Z,0.95
2018-08-07T02:40:17.966Z,1.00
2018-08-07T02:42:47.829Z,0.93
2018-08-07T02:45:18.857Z,0.90
2018-08-07T02:47:48.535Z,0.95
2018-08-07T02:50:19.366Z,1.10
2018-08-07T02:52:48.320Z,0.90
2018-08-07T02:55:17.430Z,0.90
2018-08-07T02:57:46.816Z,0.90
2018-08-07T03:00:18.406Z,1.00
2018-08-07T03:02:47.748Z,1.32
2018-08-07T03:05:17.515Z,1.00
2018-08-07T03:07:47.240Z,0.82
2018-08-07T03:10:16.260Z,0.80
2018-08-07T03:12:45.317Z,1.05
2018-08-07T03:15:16.705Z,0.90
2018-08-07T03:17:46.636Z,0.80
2018-08-07T03:20:15.944Z,0.90
2018-08-07T03:22:46.377Z,0.90
2018-08-07T03:25:15.720Z,1.12
2018-08-07T03:27:45.483Z,1.10
2018-08-07T03:30:16.411Z,1.00
2018-08-07T03:32:45.802Z,1.10
2018-08-07T03:35:14.733Z,0.95
2018-08-07T03:37:43.912Z,1.20
2018-08-07T03:40:16.373Z,1.10
2018-08-07T03:42:45.567Z,1.00
2018-08-07T03:45:15.511Z,1.15
2018-08-07T03:47:45.561Z,1.10
2018-08-07T03:50:14.693Z,0.95
2018-08-07T03:52:43.760Z,1.15
2018-08-07T03:55:14.899Z,1.05
2018-08-07T03:57:44.764Z,0.90
2018-08-07T04:00:18.284Z,1.07
2018-08-07T04:02:47.582Z,1.22
2018-08-07T04:05:17.430Z,1.17
2018-08-07T04:07:46.888Z,1.00
2018-08-07T04:10:17.647Z,0.95
2018-08-07T04:12:47.731Z,1.00
2018-08-07T04:15:18.037Z,1.10
2018-08-07T04:17:46.974Z,0.90
2018-08-07T04:20:17.465Z,1.12
2018-08-07T04:22:46.537Z,0.93
2018-08-07T04:25:15.656Z,0.80
2018-08-07T04:27:44.713Z,0.88
2018-08-07T04:30:15.695Z,0.93
2018-08-07T04:32:45.081Z,0.90
2018-08-07T04:35:14.931Z,1.02
2018-08-07T04:37:44.885Z,0.85
2018-08-07T04:40:13.964Z,0.98
2018-08-07T04:42:43.237Z,0.85
2018-08-07T04:45:19.370Z,1.05
2018-08-07T04:47:48.873Z,1.00
2018-08-07T04:50:18.615Z,1.20
2018-08-07T04:52:47.960Z,1.52
2018-08-07T04:55:17.003Z,1.00
2018-08-07T04:57:46.068Z,0.82
2018-08-07T05:00:18.307Z,0.88
2018-08-07T05:02:48.179Z,0.90
2018-08-07T05:05:17.698Z,1.00
2018-08-07T05:07:46.821Z,0.90
2018-08-07T05:10:17.036Z,1.00
2018-08-07T05:12:46.651Z,0.80
2018-08-07T05:15:15.894Z,1.10
2018-08-07T05:17:46.122Z,1.05
2018-08-07T05:20:15.246Z,1.05
2018-08-07T05:22:44.213Z,0.90
2018-08-07T05:25:14.019Z,0.90
2018-08-07T05:27:42.983Z,1.00
2018-08-07T05:30:14.119Z,0.80
2018-08-07T05:32:43.470Z,1.00
2018-08-07T05:35:14.151Z,0.90
2018-08-07T05:37:43.129Z,0.70
2018-08-07T05:40:12.280Z,0.70
2018-08-07T05:42:41.580Z,0.80
2018-08-07T05:45:13.186Z,0.72
2018-08-07T05:47:42.327Z,0.88
2018-08-07T05:50:13.893Z,1.07
2018-08-07T05:52:42.857Z,0.93
2018-08-07T05:55:11.953Z,0.90
2018-08-07T05:57:40.813Z,0.80
2018-08-07T06:00:12.692Z,1.22
2018-08-07T06:02:41.702Z,1.00
2018-08-07T06:05:10.948Z,0.80
2018-08-07T06:07:39.936Z,0.98
2018-08-07T06:10:10.652Z,0.90
2018-08-07T06:12:39.642Z,0.90
2018-08-07T06:15:12.136Z,0.78
2018-08-07T06:17:41.972Z,0.70
2018-08-07T06:20:11.486Z,1.07
2018-08-07T06:22:40.465Z,0.98
2018-08-07T06:25:10.338Z,0.88
2018-08-07T06:27:39.552Z,0.80
2018-08-07T06:30:10.793Z,0.90
2018-08-07T06:32:39.844Z,0.98
2018-08-07T06:35:09.121Z,0.90
2018-08-07T06:37:38.195Z,0.93
2018-08-07T06:40:08.643Z,0.70
2018-08-07T06:42:37.872Z,0.80
2018-08-07T06:45:07.932Z,1.00
2018-08-07T06:47:37.262Z,1.12
2018-08-07T06:50:10.673Z,0.75
2018-08-07T06:52:39.769Z,0.80
2018-08-07T06:55:09.367Z,0.90
2018-08-07T06:57:38.353Z,1.00
2018-08-07T07:00:11.279Z,1.00
2018-08-07T07:02:40.641Z,0.95
2018-08-07T07:05:09.607Z,1.30
2018-08-07T07:07:38.857Z,1.00
2018-08-07T07:10:09.044Z,0.75
2018-08-07T07:12:38.058Z,1.00
2018-08-07T07:15:08.349Z,1.05
2018-08-07T07:17:37.617Z,0.93
2018-08-07T07:20:08.694Z,0.93
2018-08-07T07:22:37.620Z,0.85
2018-08-07T07:25:07.243Z,0.78
2018-08-07T07:27:36.076Z,1.00
2018-08-07T07:30:08.509Z,0.98
2018-08-07T07:32:37.434Z,0.70
2018-08-07T07:35:06.280Z,1.12
2018-08-07T07:37:35.413Z,0.70
2018-08-07T07:40:05.037Z,1.00
2018-08-07T07:42:33.940Z,1.00
2018-08-07T07:45:02.910Z,0.72
2018-08-07T07:47:31.772Z,1.05
2018-08-07T07:50:00.653Z,0.90
2018-08-07T07:52:29.687Z,0.90
2018-08-07T07:54:58.498Z,0.90
2018-08-07T07:57:27.317Z,1.20
2018-08-07T07:59:56.369Z,0.78
2018-08-07T08:02:25.208Z,1.00
2018-08-07T08:04:54.055Z,0.80
2018-08-07T08:07:22.975Z,0.82
2018-08-07T08:09:51.793Z,0.90
2018-08-07T08:12:20.654Z,1.00
2018-08-07T08:14:49.654Z,1.00
2018-08-07T08:17:18.506Z,0.72
2018-08-07T08:19:47.456Z,0.90
2018-08-07T08:22:16.620Z,0.80
2018-08-07T08:24:45.643Z,0.60
2018-08-07T08:27:14.492Z,0.80
2018-08-07T08:29:43.425Z,0.95
2018-08-07T08:32:12.703Z,0.80
2018-08-07T08:34:41.657Z,0.70
2018-08-07T08:37:10.738Z,0.90
2018-08-07T08:39:40.287Z,0.80
2018-08-07T08:42:09.396Z,0.75
2018-08-07T08:44:38.428Z,1.02
2018-08-07T08:47:07.394Z,0.80
2018-08-07T08:49:36.216Z,0.80
2018-08-07T08:52:05.246Z,0.80
2018-08-07T08:54:34.113Z,0.80
2018-08-07T08:57:04.141Z,0.88
2018-08-07T08:59:33.083Z,0.90
2018-08-07T09:02:01.974Z,0.50
2018-08-07T09:04:30.941Z,0.90
2018-08-07T09:06:59.871Z,0.78
2018-08-07T09:09:28.768Z,1.32
2018-08-07T09:12:01.568Z,0.93
2018-08-07T09:14:30.442Z,0.72
2018-08-07T09:16:59.390Z,0.75
2018-08-07T09:19:30.088Z,0.70
2018-08-07T09:22:00.474Z,0.82
2018-08-07T09:24:29.404Z,0.70
2018-08-07T09:26:59.193Z,0.75
2018-08-07T09:29:36.720Z,1.30
2018-08-07T09:32:06.079Z,0.70
2018-08-07T09:34:36.513Z,0.78
2018-08-07T09:37:05.380Z,0.80
2018-08-07T09:39:34.369Z,0.70
2018-08-07T09:42:05.316Z,0.75
2018-08-07T09:44:34.238Z,0.88
2018-08-07T09:47:03.145Z,0.70
2018-08-07T09:49:33.219Z,0.70
2018-08-07T09:52:03.105Z,0.90
2018-08-07T09:54:32.018Z,0.68
2018-08-07T09:57:05.745Z,0.88
2018-08-07T09:59:34.694Z,0.88
2018-08-07T10:02:08.862Z,0.72
2018-08-07T10:04:37.807Z,0.85
2018-08-07T10:07:06.725Z,0.90
2018-08-07T10:09:35.589Z,0.93
2018-08-07T10:12:04.672Z,0.78
2018-08-07T10:14:33.511Z,0.70
2018-08-07T10:17:02.377Z,1.02
2018-08-07T10:19:31.285Z,0.60
2018-08-07T10:22:00.104Z,0.82
2018-08-07T10:24:28.945Z,0.80
2018-08-07T10:26:58.905Z,0.80
2018-08-07T10:29:27.872Z,0.90
2018-08-07T10:31:56.704Z,0.95
2018-08-07T10:34:28.559Z,0.95
2018-08-07T10:36:57.545Z,0.80
2018-08-07T10:39:26.721Z,1.10
2018-08-07T10:41:55.637Z,0.98
2018-08-07T10:44:24.564Z,1.40
2018-08-07T10:46:53.753Z,1.00
2018-08-07T10:49:23.904Z,0.90
2018-08-07T10:51:52.829Z,0.98
2018-08-07T10:54:21.813Z,0.90
2018-08-07T10:56:50.645Z,0.98
2018-08-07T10:59:19.462Z,1.02
2018-08-07T11:01:48.410Z,1.00
2018-08-07T11:04:17.307Z,1.10
2018-08-07T11:06:46.607Z,1.00
2018-08-07T11:09:16.257Z,1.10
2018-08-07T11:11:45.184Z,1.17
2018-08-07T11:14:14.104Z,1.12
2018-08-07T11:16:43.129Z,1.20
2018-08-07T11:19:11.988Z,1.10
2018-08-07T11:21:40.793Z,1.32
2018-08-07T11:24:09.743Z,1.00
2018-08-07T11:26:38.588Z,1.80
2018-08-07T11:29:07.710Z,1.35
2018-08-07T11:31:36.711Z,1.30
2018-08-07T11:34:05.608Z,1.27
2018-08-07T11:36:34.441Z,1.10
2018-08-07T11:39:03.441Z,1.30
2018-08-07T11:41:32.262Z,1.00
2018-08-07T11:44:01.098Z,1.27
2018-08-07T11:46:30.036Z,1.07
2018-08-07T11:48:59.015Z,1.70
2018-08-07T11:51:27.921Z,1.40
2018-08-07T11:53:56.997Z,1.20
2018-08-07T11:56:26.165Z,1.30
2018-08-07T11:58:54.930Z,1.27
2018-08-07T12:01:23.829Z,1.60
2018-08-07T12:03:53.715Z,1.52
2018-08-07T12:06:24.528Z,1.25
2018-08-07T12:08:56.892Z,1.37
2018-08-07T12:11:41.927Z,1.15
2018-08-07T12:14:12.368Z,1.27
2018-08-07T12:16:47.696Z,1.40
2018-08-07T12:19:40.558Z,1.25
2018-08-07T12:22:31.464Z,1.27
2018-08-07T12:25:45.317Z,1.50
2018-08-07T12:28:32.330Z,1.20
2018-08-07T12:40:25.192Z,1.30
2018-08-07T12:58:26.213Z,2.00
2018-08-07T13:01:17.821Z,1.72
2018-08-07T13:04:14.943Z,1.60
2018-08-07T13:07:42.309Z,1.40
2018-08-07T13:23:54.905Z,1.40
2018-08-07T13:26:25.842Z,1.32
2018-08-07T13:28:55.645Z,1.47
2018-08-07T13:31:25.224Z,1.45
2018-08-07T13:33:54.703Z,1.65
2018-08-07T13:36:24.323Z,1.42
2018-08-07T13:38:53.155Z,1.50
2018-08-07T13:41:21.990Z,1.50
2018-08-07T13:43:51.253Z,1.60
2018-08-07T13:46:21.195Z,1.60
2018-08-07T13:48:51.448Z,1.45
2018-08-07T13:51:25.028Z,1.47
2018-08-07T13:53:53.927Z,1.70
2018-08-07T13:56:22.769Z,2.08
2018-08-07T13:58:51.700Z,1.77
2018-08-07T14:01:21.796Z,1.50
2018-08-07T14:03:53.729Z,1.70
2018-08-07T14:06:24.073Z,1.50
2018-08-07T14:08:53.101Z,1.57
2018-08-07T14:11:22.029Z,1.67
2018-08-07T14:13:51.640Z,1.90
2018-08-07T14:16:21.221Z,1.90
2018-08-07T14:18:51.130Z,1.77
2018-08-07T14:21:19.961Z,1.50
2018-08-07T14:23:48.948Z,1.62
2018-08-07T14:26:19.961Z,1.67
2018-08-07T14:28:48.885Z,1.77
2018-08-07T14:31:18.444Z,1.52
2018-08-07T14:33:47.290Z,1.45
2018-08-07T14:36:17.225Z,1.40
2018-08-07T14:38:46.154Z,1.47
2018-08-07T14:41:15.849Z,1.80
2018-08-07T14:43:45.522Z,1.60
2018-08-07T14:46:14.418Z,1.80
2018-08-07T14:48:43.342Z,1.85
2018-08-07T14:51:13.298Z,1.40
2018-08-07T14:53:42.700Z,1.62
2018-08-07T14:56:12.532Z,1.60
2018-08-07T14:58:42.468Z,1.30
2018-08-07T15:01:11.504Z,1.37
2018-08-07T15:03:40.345Z,1.60
2018-08-07T15:06:10.273Z,1.60
2018-08-07T15:08:39.200Z,1.52
2018-08-07T15:11:08.255Z,1.80
2018-08-07T15:13:38.411Z,1.70
2018-08-07T15:16:07.365Z,1.77
2018-08-07T15:18:36.204Z,1.50
2018-08-07T15:21:05.067Z,1.50
2018-08-07T15:23:34.751Z,1.52
2018-08-07T15:26:04.632Z,1.70
2018-08-07T15:28:34.321Z,1.60
2018-08-07T15:31:04.163Z,1.40
2018-08-07T15:33:33.278Z,1.50
2018-08-07T15:36:03.341Z,1.80
2018-08-07T15:38:33.316Z,1.62
2018-08-07T15:41:02.110Z,1.32
2018-08-07T15:43:31.117Z,1.70
2018-08-07T15:46:00.109Z,1.70
2018-08-07T15:48:29.016Z,1.42
2018-08-07T15:50:57.938Z,1.60
2018-08-07T15:53:27.754Z,1.67
2018-08-07T15:55:57.672Z,1.67
2018-08-07T15:58:26.770Z,1.70
2018-08-07T16:01:02.857Z,1.50
2018-08-07T16:03:32.532Z,1.67
2018-08-07T16:06:03.052Z,1.30
2018-08-07T16:08:33.191Z,1.60
2018-08-07T16:11:04.485Z,1.50
2018-08-07T16:13:34.650Z,1.47
2018-08-07T16:16:04.116Z,1.70
2018-08-07T16:18:33.926Z,1.42
2018-08-07T16:21:05.119Z,1.55
2018-08-07T16:23:35.192Z,2.10
2018-08-07T16:26:05.994Z,1.80
2018-08-07T16:28:39.661Z,1.45
2018-08-07T16:31:12.090Z,1.45
2018-08-07T16:33:49.794Z,1.40
2018-08-07T16:36:20.369Z,1.72
2018-08-07T16:38:50.640Z,1.60
2018-08-07T16:41:27.731Z,1.90
2018-08-07T16:43:58.647Z,1.57
2018-08-07T16:46:34.066Z,1.55
2018-08-07T16:49:07.083Z,2.20
2018-08-07T16:51:38.832Z,1.40
2018-08-07T16:54:15.440Z,1.45
2018-08-07T16:56:51.481Z,1.92
2018-08-07T16:59:23.921Z,1.57
2018-08-07T17:01:54.787Z,1.90
2018-08-07T17:04:35.327Z,2.33
2018-08-07T17:07:10.076Z,1.70
2018-08-07T17:09:53.927Z,1.60
2018-08-07T17:12:39.556Z,1.62
2018-08-07T17:15:15.119Z,1.70
2018-08-07T17:17:44.497Z,1.80
2018-08-07T17:20:17.033Z,1.90
2018-08-07T17:22:46.057Z,1.57
2018-08-07T17:25:16.573Z,1.80
2018-08-07T17:27:46.268Z,1.65
2018-08-07T17:30:20.943Z,1.72
2018-08-07T17:32:53.172Z,2.00
2018-08-07T17:35:29.459Z,1.72
2018-08-07T17:38:01.284Z,1.95
2018-08-07T17:40:31.667Z,2.10
2018-08-07T17:43:01.278Z,1.67
2018-08-07T17:45:30.141Z,1.62
2018-08-07T17:48:05.863Z,1.70
2018-08-07T17:50:38.255Z,1.82
2018-08-07T17:53:10.827Z,2.05
2018-08-07T17:55:39.634Z,2.02
2018-08-07T17:58:08.662Z,2.00
2018-08-07T18:00:47.624Z,2.10
2018-08-07T18:03:19.447Z,1.95
2018-08-07T18:05:53.827Z,1.90
2018-08-07T18:08:24.347Z,1.95
2018-08-07T18:10:55.274Z,1.98
2018-08-07T18:13:25.358Z,2.00
2018-08-07T18:15:58.755Z,2.05
2018-08-07T18:18:32.169Z,1.80
2018-08-07T18:21:01.875Z,1.87
2018-08-07T18:23:31.796Z,2.20
2018-08-07T18:26:01.843Z,2.00
2018-08-07T18:28:30.761Z,2.30
2018-08-07T18:31:02.593Z,2.00
2018-08-07T18:33:35.209Z,2.50
2018-08-07T18:36:04.144Z,1.98
2018-08-07T18:38:37.840Z,2.12
2018-08-07T18:41:08.639Z,2.22
2018-08-07T18:43:40.010Z,2.20
2018-08-07T18:46:09.487Z,2.33
2018-08-07T18:48:40.627Z,2.12
2018-08-07T18:51:12.019Z,2.02
2018-08-07T18:53:40.983Z,1.95
2018-08-07T18:56:10.021Z,2.60
2018-08-07T18:58:38.979Z,2.47
2018-08-07T19:01:08.145Z,2.37
2018-08-07T19:03:37.167Z,2.72
2018-08-07T19:06:06.069Z,2.75
2018-08-07T19:08:34.933Z,2.70
2018-08-07T19:11:10.683Z,2.55
2018-08-07T19:13:39.599Z,2.62
2018-08-07T19:16:08.500Z,2.75
2018-08-07T19:18:37.506Z,2.27
2018-08-07T19:21:06.577Z,2.35
2018-08-07T19:23:35.580Z,2.45
2018-08-07T19:26:04.627Z,2.42
2018-08-07T19:28:33.561Z,2.67
2018-08-07T19:31:02.538Z,2.40
2018-08-07T19:33:31.630Z,2.92
2018-08-07T19:36:00.551Z,2.62
2018-08-07T19:38:29.450Z,2.65
2018-08-07T19:40:58.567Z,2.37
2018-08-07T19:43:27.579Z,1.98
2018-08-07T19:45:57.210Z,2.52
2018-08-07T19:48:26.132Z,2.85
2018-08-07T19:50:55.645Z,3.08
2018-08-07T19:53:24.548Z,2.90
2018-08-07T19:55:54.280Z,2.40
2018-08-07T19:58:23.135Z,2.60
2018-08-07T20:00:52.199Z,2.45
2018-08-07T20:03:21.207Z,2.47
2018-08-07T20:05:50.087Z,2.37
2018-08-07T20:08:18.984Z,2.30
2018-08-07T20:10:48.197Z,2.40
2018-08-07T20:13:17.048Z,2.02
2018-08-07T20:15:45.963Z,2.52
2018-08-07T20:18:14.994Z,2.22
2018-08-07T20:20:43.940Z,2.10
2018-08-07T20:23:12.911Z,2.05
2018-08-07T20:25:41.897Z,1.75
2018-08-07T20:28:10.781Z,2.30
2018-08-07T20:30:39.689Z,1.90
2018-08-07T20:33:08.834Z,2.02
2018-08-07T20:35:38.382Z,2.40
2018-08-07T20:38:07.502Z,2.30
2018-08-07T20:40:36.459Z,1.85
2018-08-07T20:43:05.417Z,1.92
2018-08-07T20:45:34.324Z,2.00
2018-08-07T20:48:03.513Z,2.20
2018-08-07T20:50:32.412Z,2.20
2018-08-07T20:53:01.335Z,2.20
2018-08-07T20:55:30.315Z,1.87
2018-08-07T20:57:59.242Z,1.70
2018-08-07T21:00:28.788Z,1.92
2018-08-07T21:02:57.904Z,1.80
2018-08-07T21:05:27.510Z,1.60
2018-08-07T21:07:57.152Z,1.87
2018-08-07T21:10:27.484Z,1.90
2018-08-07T21:12:56.883Z,1.65
2018-08-07T21:15:26.601Z,2.08
2018-08-07T21:17:55.615Z,1.80
2018-08-07T21:20:26.069Z,1.62
2018-08-07T21:22:56.595Z,1.82
2018-08-07T21:25:25.841Z,1.37
2018-08-07T21:27:57.078Z,1.70
2018-08-07T21:30:28.472Z,1.90
2018-08-07T21:32:58.254Z,2.08
2018-08-07T21:35:33.064Z,1.60
2018-08-07T21:38:01.988Z,1.75
2018-08-07T21:40:30.900Z,1.82
2018-08-07T21:43:00.963Z,2.20
2018-08-07T21:45:29.872Z,1.95
2018-08-07T21:47:59.057Z,2.10
2018-08-07T21:50:29.225Z,2.05
2018-08-07T21:52:58.229Z,2.05
2018-08-07T21:55:27.389Z,1.65
2018-08-07T21:57:56.509Z,1.77
2018-08-07T22:00:36.623Z,2.00
2018-08-07T22:03:06.882Z,1.95
2018-08-07T22:05:40.886Z,1.98
2018-08-07T22:08:10.984Z,2.05
2018-08-07T22:10:39.964Z,2.25
2018-08-07T22:13:10.131Z,2.20
2018-08-07T22:15:40.607Z,2.02
2018-08-07T22:18:12.456Z,1.98
2018-08-07T22:20:43.283Z,2.10
2018-08-07T22:23:14.242Z,2.58
2018-08-07T22:25:49.849Z,1.92
2018-08-07T22:28:18.853Z,2.42
2018-08-07T22:30:48.353Z,2.05
2018-08-07T22:33:18.017Z,2.22
2018-08-07T22:35:47.906Z,2.27
2018-08-07T22:38:17.358Z,2.60
2018-08-07T22:40:47.315Z,2.33
2018-08-07T22:43:16.633Z,2.25
2018-08-07T22:45:45.994Z,2.10
2018-08-07T22:48:16.105Z,2.37
2018-08-07T22:50:46.029Z,2.47
2018-08-07T22:53:15.650Z,2.17
2018-08-07T22:55:45.163Z,2.52
2018-08-07T22:58:14.912Z,2.55
2018-08-07T23:00:44.895Z,2.72
2018-08-07T23:03:14.595Z,2.40
2018-08-07T23:05:44.282Z,2.12
2018-08-07T23:08:13.319Z,2.37
2018-08-07T23:10:42.225Z,2.50
2018-08-07T23:13:12.031Z,2.00
2018-08-07T23:15:41.519Z,2.65
2018-08-07T23:18:11.728Z,2.65
2018-08-07T23:20:43.151Z,2.35
2018-08-07T23:24:15.860Z,2.30
2018-08-07T23:26:59.019Z,1.92
2018-08-07T23:29:34.364Z,1.92
2018-08-07T23:32:04.424Z,2.47
2018-08-07T23:34:40.624Z,2.35
2018-08-07T23:37:12.567Z,2.72
2018-08-07T23:39:41.481Z,2.22
2018-08-07T23:42:10.410Z,2.40
2018-08-07T23:44:39.493Z,2.50
2018-08-07T23:47:08.393Z,2.17
2018-08-07T23:49:37.442Z,2.35
2018-08-07T23:52:06.406Z,2.30
2018-08-07T23:54:35.319Z,2.85
2018-08-07T23:57:04.392Z,2.65
2018-08-07T23:59:33.755Z,2.50
